sensor_id;sensor_type;location;lat;lon;timestamp;P1;durP1;ratioP1;P2;durP2;ratioP2
30571;SDS011;17348;50.948;10.696;2023-09-08T00:00:51;10.65;;;6.30;;
30571;SDS011;17348;50.948;10.696;2023-09-08T00:03:54;12.73;;;6.18;;
30571;SDS011;17348;50.948;10.696;2023-09-08T00:06:56;16.45;;;6.65;;
30571;SDS011;17348;50.948;10.696;2023-09-08T00:09:58;12.75;;;7.05;;
30571;SDS011;17348;50.948;10.696;2023-09-08T00:13:01;14.73;;;6.40;;
30571;SDS011;17348;50.948;10.696;2023-09-08T00:16:04;9.63;;;5.65;;
30571;SDS011;17348;50.948;10.696;2023-09-08T00:19:07;11.15;;;6.00;;
30571;SDS011;17348;50.948;10.696;2023-09-08T00:22:09;10.15;;;5.47;;
30571;SDS011;17348;50.948;10.696;2023-09-08T00:25:12;13.80;;;5.45;;
30571;SDS011;17348;50.948;10.696;2023-09-08T00:28:14;9.80;;;5.82;;
30571;SDS011;17348;50.948;10.696;2023-09-08T00:31:18;12.60;;;6.75;;
30571;SDS011;17348;50.948;10.696;2023-09-08T00:34:20;10.48;;;6.10;;
30571;SDS011;17348;50.948;10.696;2023-09-08T00:37:22;12.95;;;5.75;;
30571;SDS011;17348;50.948;10.696;2023-09-08T00:40:26;10.50;;;5.40;;
30571;SDS011;17348;50.948;10.696;2023-09-08T00:43:28;17.83;;;6.55;;
30571;SDS011;17348;50.948;10.696;2023-09-08T00:46:32;25.45;;;6.95;;
30571;SDS011;17348;50.948;10.696;2023-09-08T00:49:34;8.98;;;5.78;;
30571;SDS011;17348;50.948;10.696;2023-09-08T00:52:37;9.05;;;5.93;;
30571;SDS011;17348;50.948;10.696;2023-09-08T00:55:39;12.32;;;6.88;;
30571;SDS011;17348;50.948;10.696;2023-09-08T00:58:42;12.27;;;6.18;;
30571;SDS011;17348;50.948;10.696;2023-09-08T01:01:48;13.82;;;5.85;;
30571;SDS011;17348;50.948;10.696;2023-09-08T01:04:51;10.40;;;5.93;;
30571;SDS011;17348;50.948;10.696;2023-09-08T01:07:53;12.88;;;5.85;;
30571;SDS011;17348;50.948;10.696;2023-09-08T01:10:56;8.38;;;5.30;;
30571;SDS011;17348;50.948;10.696;2023-09-08T01:13:59;10.05;;;4.78;;
30571;SDS011;17348;50.948;10.696;2023-09-08T01:17:02;11.95;;;5.93;;
30571;SDS011;17348;50.948;10.696;2023-09-08T01:20:06;10.02;;;5.72;;
30571;SDS011;17348;50.948;10.696;2023-09-08T01:23:17;12.30;;;6.28;;
30571;SDS011;17348;50.948;10.696;2023-09-08T01:26:24;16.67;;;5.63;;
30571;SDS011;17348;50.948;10.696;2023-09-08T01:29:34;9.95;;;5.13;;
30571;SDS011;17348;50.948;10.696;2023-09-08T01:32:38;8.18;;;5.65;;
30571;SDS011;17348;50.948;10.696;2023-09-08T01:35:42;10.50;;;5.68;;
30571;SDS011;17348;50.948;10.696;2023-09-08T01:38:45;10.20;;;5.75;;
30571;SDS011;17348;50.948;10.696;2023-09-08T01:41:48;8.43;;;5.15;;
30571;SDS011;17348;50.948;10.696;2023-09-08T01:44:51;10.23;;;5.47;;
30571;SDS011;17348;50.948;10.696;2023-09-08T01:47:53;8.20;;;5.35;;
30571;SDS011;17348;50.948;10.696;2023-09-08T01:50:55;10.32;;;6.20;;
30571;SDS011;17348;50.948;10.696;2023-09-08T01:53:57;12.98;;;6.75;;
30571;SDS011;17348;50.948;10.696;2023-09-08T01:57:01;9.07;;;5.78;;
30571;SDS011;17348;50.948;10.696;2023-09-08T02:00:04;9.63;;;6.18;;
30571;SDS011;17348;50.948;10.696;2023-09-08T02:03:07;13.10;;;5.43;;
30571;SDS011;17348;50.948;10.696;2023-09-08T02:06:10;11.20;;;6.50;;
30571;SDS011;17348;50.948;10.696;2023-09-08T02:09:13;10.02;;;5.93;;
30571;SDS011;17348;50.948;10.696;2023-09-08T02:12:17;10.13;;;6.05;;
30571;SDS011;17348;50.948;10.696;2023-09-08T02:15:20;10.45;;;5.95;;
30571;SDS011;17348;50.948;10.696;2023-09-08T02:18:22;9.05;;;5.43;;
30571;SDS011;17348;50.948;10.696;2023-09-08T02:21:26;16.00;;;6.82;;
30571;SDS011;17348;50.948;10.696;2023-09-08T02:24:28;12.77;;;5.85;;
30571;SDS011;17348;50.948;10.696;2023-09-08T02:27:32;10.55;;;5.97;;
30571;SDS011;17348;50.948;10.696;2023-09-08T02:30:34;16.20;;;7.35;;
30571;SDS011;17348;50.948;10.696;2023-09-08T02:33:37;11.50;;;6.60;;
30571;SDS011;17348;50.948;10.696;2023-09-08T02:36:39;11.27;;;6.70;;
30571;SDS011;17348;50.948;10.696;2023-09-08T02:39:42;10.43;;;6.07;;
30571;SDS011;17348;50.948;10.696;2023-09-08T02:42:45;15.57;;;6.72;;
30571;SDS011;17348;50.948;10.696;2023-09-08T02:45:48;15.23;;;6.75;;
30571;SDS011;17348;50.948;10.696;2023-09-08T02:48:50;15.30;;;6.60;;
30571;SDS011;17348;50.948;10.696;2023-09-08T02:51:53;12.93;;;6.93;;
30571;SDS011;17348;50.948;10.696;2023-09-08T02:54:55;11.88;;;6.80;;
30571;SDS011;17348;50.948;10.696;2023-09-08T02:57:59;16.20;;;6.85;;
30571;SDS011;17348;50.948;10.696;2023-09-08T03:01:11;10.50;;;6.85;;
30571;SDS011;17348;50.948;10.696;2023-09-08T03:04:15;24.40;;;7.30;;
30571;SDS011;17348;50.948;10.696;2023-09-08T03:07:17;10.32;;;5.72;;
30571;SDS011;17348;50.948;10.696;2023-09-08T03:10:19;10.32;;;5.70;;
30571;SDS011;17348;50.948;10.696;2023-09-08T03:13:23;19.73;;;6.40;;
30571;SDS011;17348;50.948;10.696;2023-09-08T03:16:26;10.23;;;5.82;;
30571;SDS011;17348;50.948;10.696;2023-09-08T03:19:28;12.10;;;7.50;;
30571;SDS011;17348;50.948;10.696;2023-09-08T03:22:31;12.52;;;6.85;;
30571;SDS011;17348;50.948;10.696;2023-09-08T03:25:37;11.10;;;6.07;;
30571;SDS011;17348;50.948;10.696;2023-09-08T03:28:41;15.50;;;7.30;;
30571;SDS011;17348;50.948;10.696;2023-09-08T03:31:44;12.20;;;7.18;;
30571;SDS011;17348;50.948;10.696;2023-09-08T03:34:47;13.25;;;6.68;;
30571;SDS011;17348;50.948;10.696;2023-09-08T03:37:51;12.32;;;7.20;;
30571;SDS011;17348;50.948;10.696;2023-09-08T03:40:53;15.38;;;6.70;;
30571;SDS011;17348;50.948;10.696;2023-09-08T03:43:57;10.85;;;6.40;;
30571;SDS011;17348;50.948;10.696;2023-09-08T03:46:59;13.02;;;7.07;;
30571;SDS011;17348;50.948;10.696;2023-09-08T03:50:03;14.35;;;7.00;;
30571;SDS011;17348;50.948;10.696;2023-09-08T03:53:06;13.75;;;6.88;;
30571;SDS011;17348;50.948;10.696;2023-09-08T03:56:08;16.20;;;7.20;;
30571;SDS011;17348;50.948;10.696;2023-09-08T03:59:12;12.38;;;7.40;;
30571;SDS011;17348;50.948;10.696;2023-09-08T04:02:14;19.80;;;8.38;;
30571;SDS011;17348;50.948;10.696;2023-09-08T04:05:17;19.27;;;7.85;;
30571;SDS011;17348;50.948;10.696;2023-09-08T04:08:19;10.98;;;6.90;;
30571;SDS011;17348;50.948;10.696;2023-09-08T04:11:21;14.73;;;7.20;;
30571;SDS011;17348;50.948;10.696;2023-09-08T04:14:25;12.98;;;7.10;;
30571;SDS011;17348;50.948;10.696;2023-09-08T04:17:29;19.63;;;7.57;;
30571;SDS011;17348;50.948;10.696;2023-09-08T04:20:31;13.02;;;7.07;;
30571;SDS011;17348;50.948;10.696;2023-09-08T04:23:33;13.40;;;7.55;;
30571;SDS011;17348;50.948;10.696;2023-09-08T04:26:35;16.17;;;6.82;;
30571;SDS011;17348;50.948;10.696;2023-09-08T04:29:39;16.63;;;6.80;;
30571;SDS011;17348;50.948;10.696;2023-09-08T04:32:41;18.63;;;7.90;;
30571;SDS011;17348;50.948;10.696;2023-09-08T04:35:44;11.68;;;7.45;;
30571;SDS011;17348;50.948;10.696;2023-09-08T04:38:46;14.43;;;7.25;;
30571;SDS011;17348;50.948;10.696;2023-09-08T04:41:48;14.52;;;7.78;;
30571;SDS011;17348;50.948;10.696;2023-09-08T04:44:52;11.65;;;6.55;;
30571;SDS011;17348;50.948;10.696;2023-09-08T04:47:54;12.52;;;7.32;;
30571;SDS011;17348;50.948;10.696;2023-09-08T04:50:57;13.02;;;7.13;;
30571;SDS011;17348;50.948;10.696;2023-09-08T04:53:59;15.35;;;7.53;;
30571;SDS011;17348;50.948;10.696;2023-09-08T04:57:02;16.23;;;7.35;;
30571;SDS011;17348;50.948;10.696;2023-09-08T05:00:06;12.52;;;7.05;;
30571;SDS011;17348;50.948;10.696;2023-09-08T05:03:09;12.68;;;6.88;;
30571;SDS011;17348;50.948;10.696;2023-09-08T05:06:11;11.65;;;6.75;;
30571;SDS011;17348;50.948;10.696;2023-09-08T05:09:14;14.90;;;7.00;;
30571;SDS011;17348;50.948;10.696;2023-09-08T05:12:17;16.98;;;7.40;;
30571;SDS011;17348;50.948;10.696;2023-09-08T05:15:23;14.25;;;6.85;;
30571;SDS011;17348;50.948;10.696;2023-09-08T05:18:28;18.15;;;8.20;;
30571;SDS011;17348;50.948;10.696;2023-09-08T05:21:31;13.50;;;7.05;;
30571;SDS011;17348;50.948;10.696;2023-09-08T05:24:34;11.63;;;6.75;;
30571;SDS011;17348;50.948;10.696;2023-09-08T05:27:36;14.88;;;7.32;;
30571;SDS011;17348;50.948;10.696;2023-09-08T05:30:40;19.48;;;8.05;;
30571;SDS011;17348;50.948;10.696;2023-09-08T05:33:42;14.40;;;8.23;;
30571;SDS011;17348;50.948;10.696;2023-09-08T05:36:45;13.68;;;7.72;;
30571;SDS011;17348;50.948;10.696;2023-09-08T05:39:47;19.30;;;7.55;;
30571;SDS011;17348;50.948;10.696;2023-09-08T05:42:50;15.13;;;7.25;;
30571;SDS011;17348;50.948;10.696;2023-09-08T05:45:54;18.98;;;7.97;;
30571;SDS011;17348;50.948;10.696;2023-09-08T05:48:56;15.73;;;7.38;;
30571;SDS011;17348;50.948;10.696;2023-09-08T05:51:58;14.75;;;7.50;;
30571;SDS011;17348;50.948;10.696;2023-09-08T05:55:01;13.65;;;7.53;;
30571;SDS011;17348;50.948;10.696;2023-09-08T05:58:03;17.92;;;7.55;;
30571;SDS011;17348;50.948;10.696;2023-09-08T06:01:09;17.80;;;8.32;;
30571;SDS011;17348;50.948;10.696;2023-09-08T06:04:11;15.27;;;8.27;;
30571;SDS011;17348;50.948;10.696;2023-09-08T06:07:13;16.33;;;9.05;;
30571;SDS011;17348;50.948;10.696;2023-09-08T06:10:16;18.60;;;8.43;;
30571;SDS011;17348;50.948;10.696;2023-09-08T06:13:20;19.23;;;9.10;;
30571;SDS011;17348;50.948;10.696;2023-09-08T06:16:24;19.33;;;9.25;;
30571;SDS011;17348;50.948;10.696;2023-09-08T06:19:26;16.10;;;8.25;;
30571;SDS011;17348;50.948;10.696;2023-09-08T06:22:28;13.90;;;8.32;;
30571;SDS011;17348;50.948;10.696;2023-09-08T06:25:30;19.83;;;10.05;;
30571;SDS011;17348;50.948;10.696;2023-09-08T06:28:33;18.67;;;9.75;;
30571;SDS011;17348;50.948;10.696;2023-09-08T06:31:37;21.42;;;9.18;;
30571;SDS011;17348;50.948;10.696;2023-09-08T06:34:39;21.85;;;10.05;;
30571;SDS011;17348;50.948;10.696;2023-09-08T06:37:43;17.90;;;10.32;;
30571;SDS011;17348;50.948;10.696;2023-09-08T06:40:45;18.23;;;9.68;;
30571;SDS011;17348;50.948;10.696;2023-09-08T06:43:48;18.35;;;10.25;;
30571;SDS011;17348;50.948;10.696;2023-09-08T06:46:52;16.45;;;9.75;;
30571;SDS011;17348;50.948;10.696;2023-09-08T06:49:56;16.38;;;9.98;;
30571;SDS011;17348;50.948;10.696;2023-09-08T06:53:01;21.20;;;9.75;;
30571;SDS011;17348;50.948;10.696;2023-09-08T06:56:04;21.00;;;9.55;;
30571;SDS011;17348;50.948;10.696;2023-09-08T06:59:06;20.20;;;9.25;;
30571;SDS011;17348;50.948;10.696;2023-09-08T07:02:10;14.40;;;9.15;;
30571;SDS011;17348;50.948;10.696;2023-09-08T07:05:12;17.00;;;10.18;;
30571;SDS011;17348;50.948;10.696;2023-09-08T07:08:16;14.93;;;9.40;;
30571;SDS011;17348;50.948;10.696;2023-09-08T07:11:19;19.95;;;8.68;;
30571;SDS011;17348;50.948;10.696;2023-09-08T07:14:22;18.08;;;9.57;;
30571;SDS011;17348;50.948;10.696;2023-09-08T07:17:25;16.58;;;9.82;;
30571;SDS011;17348;50.948;10.696;2023-09-08T07:20:28;29.63;;;10.40;;
30571;SDS011;17348;50.948;10.696;2023-09-08T07:23:30;22.90;;;10.20;;
30571;SDS011;17348;50.948;10.696;2023-09-08T07:26:33;29.67;;;10.20;;
30571;SDS011;17348;50.948;10.696;2023-09-08T08:00:48;29.15;;;10.80;;
30571;SDS011;17348;50.948;10.696;2023-09-08T08:03:51;19.60;;;9.38;;
30571;SDS011;17348;50.948;10.696;2023-09-08T08:06:53;16.70;;;8.15;;
30571;SDS011;17348;50.948;10.696;2023-09-08T08:09:55;13.75;;;7.45;;
30571;SDS011;17348;50.948;10.696;2023-09-08T08:12:57;11.38;;;6.18;;
30571;SDS011;17348;50.948;10.696;2023-09-08T08:16:04;13.80;;;6.10;;
30571;SDS011;17348;50.948;10.696;2023-09-08T08:19:13;11.55;;;6.17;;
30571;SDS011;17348;50.948;10.696;2023-09-08T08:22:16;12.70;;;6.40;;
30571;SDS011;17348;50.948;10.696;2023-09-08T08:25:20;17.08;;;6.22;;
30571;SDS011;17348;50.948;10.696;2023-09-08T08:28:22;13.65;;;7.38;;
30571;SDS011;17348;50.948;10.696;2023-09-08T08:31:26;16.48;;;6.65;;
30571;SDS011;17348;50.948;10.696;2023-09-08T08:34:29;17.27;;;6.20;;
30571;SDS011;17348;50.948;10.696;2023-09-08T08:37:31;20.42;;;5.85;;
30571;SDS011;17348;50.948;10.696;2023-09-08T08:40:34;9.65;;;5.75;;
30571;SDS011;17348;50.948;10.696;2023-09-08T08:43:40;14.30;;;5.50;;
30571;SDS011;17348;50.948;10.696;2023-09-08T08:46:46;9.20;;;5.68;;
30571;SDS011;17348;50.948;10.696;2023-09-08T08:49:49;13.48;;;5.13;;
30571;SDS011;17348;50.948;10.696;2023-09-08T08:52:52;8.90;;;5.28;;
30571;SDS011;17348;50.948;10.696;2023-09-08T08:55:55;11.48;;;5.38;;
30571;SDS011;17348;50.948;10.696;2023-09-08T08:59:00;9.20;;;5.82;;
30571;SDS011;17348;50.948;10.696;2023-09-08T09:02:04;14.05;;;5.32;;
30571;SDS011;17348;50.948;10.696;2023-09-08T09:05:08;15.43;;;5.60;;
30571;SDS011;17348;50.948;10.696;2023-09-08T09:08:12;12.15;;;5.95;;
30571;SDS011;17348;50.948;10.696;2023-09-08T09:11:16;12.10;;;6.35;;
30571;SDS011;17348;50.948;10.696;2023-09-08T09:14:21;12.63;;;6.50;;
30571;SDS011;17348;50.948;10.696;2023-09-08T09:17:27;9.68;;;5.28;;
30571;SDS011;17348;50.948;10.696;2023-09-08T09:20:34;8.82;;;4.68;;
30571;SDS011;17348;50.948;10.696;2023-09-08T09:23:37;6.95;;;4.60;;
30571;SDS011;17348;50.948;10.696;2023-09-08T09:26:42;8.80;;;4.78;;
30571;SDS011;17348;50.948;10.696;2023-09-08T09:29:48;9.85;;;5.28;;
30571;SDS011;17348;50.948;10.696;2023-09-08T09:33:00;10.23;;;4.32;;
30571;SDS011;17348;50.948;10.696;2023-09-08T09:36:04;10.30;;;4.90;;
30571;SDS011;17348;50.948;10.696;2023-09-08T09:39:07;8.40;;;4.72;;
30571;SDS011;17348;50.948;10.696;2023-09-08T09:42:12;7.32;;;4.68;;
30571;SDS011;17348;50.948;10.696;2023-09-08T09:45:24;9.15;;;4.57;;
30571;SDS011;17348;50.948;10.696;2023-09-08T09:48:28;13.35;;;5.85;;
30571;SDS011;17348;50.948;10.696;2023-09-08T09:51:30;11.13;;;6.03;;
30571;SDS011;17348;50.948;10.696;2023-09-08T09:54:33;12.23;;;4.43;;
30571;SDS011;17348;50.948;10.696;2023-09-08T09:57:35;7.80;;;4.10;;
30571;SDS011;17348;50.948;10.696;2023-09-08T10:00:39;6.90;;;3.33;;
30571;SDS011;17348;50.948;10.696;2023-09-08T10:03:43;6.90;;;3.55;;
30571;SDS011;17348;50.948;10.696;2023-09-08T10:06:46;11.32;;;4.03;;
30571;SDS011;17348;50.948;10.696;2023-09-08T10:09:49;6.40;;;3.80;;
30571;SDS011;17348;50.948;10.696;2023-09-08T10:12:52;8.80;;;4.03;;
30571;SDS011;17348;50.948;10.696;2023-09-08T10:15:57;6.03;;;4.30;;
30571;SDS011;17348;50.948;10.696;2023-09-08T10:19:01;7.25;;;3.55;;
30571;SDS011;17348;50.948;10.696;2023-09-08T10:22:10;19.42;;;4.30;;
30571;SDS011;17348;50.948;10.696;2023-09-08T10:25:17;9.50;;;4.20;;
30571;SDS011;17348;50.948;10.696;2023-09-08T10:28:22;12.77;;;4.20;;
30571;SDS011;17348;50.948;10.696;2023-09-08T10:31:25;9.98;;;4.00;;
30571;SDS011;17348;50.948;10.696;2023-09-08T10:34:30;10.95;;;4.63;;
30571;SDS011;17348;50.948;10.696;2023-09-08T10:37:34;17.35;;;4.03;;
30571;SDS011;17348;50.948;10.696;2023-09-08T10:40:41;11.15;;;3.95;;
30571;SDS011;17348;50.948;10.696;2023-09-08T10:43:43;12.68;;;3.97;;
30571;SDS011;17348;50.948;10.696;2023-09-08T10:46:45;10.43;;;4.28;;
30571;SDS011;17348;50.948;10.696;2023-09-08T10:49:49;9.98;;;4.38;;
30571;SDS011;17348;50.948;10.696;2023-09-08T10:53:03;10.82;;;4.75;;
30571;SDS011;17348;50.948;10.696;2023-09-08T10:56:11;9.90;;;4.22;;
30571;SDS011;17348;50.948;10.696;2023-09-08T10:59:13;6.25;;;3.75;;
30571;SDS011;17348;50.948;10.696;2023-09-08T11:02:31;7.00;;;3.65;;
30571;SDS011;17348;50.948;10.696;2023-09-08T11:05:36;9.27;;;3.80;;
30571;SDS011;17348;50.948;10.696;2023-09-08T11:08:41;8.43;;;3.80;;
30571;SDS011;17348;50.948;10.696;2023-09-08T11:11:44;11.07;;;4.78;;
30571;SDS011;17348;50.948;10.696;2023-09-08T11:14:48;14.32;;;3.83;;
30571;SDS011;17348;50.948;10.696;2023-09-08T11:17:50;7.20;;;3.03;;
30571;SDS011;17348;50.948;10.696;2023-09-08T11:20:55;11.70;;;3.25;;
30571;SDS011;17348;50.948;10.696;2023-09-08T11:23:58;6.18;;;3.78;;
30571;SDS011;17348;50.948;10.696;2023-09-08T11:27:00;8.55;;;4.20;;
30571;SDS011;17348;50.948;10.696;2023-09-08T11:30:03;11.60;;;4.80;;
30571;SDS011;17348;50.948;10.696;2023-09-08T11:33:11;9.60;;;4.35;;
30571;SDS011;17348;50.948;10.696;2023-09-08T11:36:17;6.05;;;3.75;;
30571;SDS011;17348;50.948;10.696;2023-09-08T11:39:22;8.23;;;4.80;;
30571;SDS011;17348;50.948;10.696;2023-09-08T11:42:25;8.50;;;4.13;;
30571;SDS011;17348;50.948;10.696;2023-09-08T11:45:29;7.90;;;4.90;;
30571;SDS011;17348;50.948;10.696;2023-09-08T11:48:32;8.48;;;3.90;;
30571;SDS011;17348;50.948;10.696;2023-09-08T11:51:37;8.43;;;3.67;;
30571;SDS011;17348;50.948;10.696;2023-09-08T11:54:39;9.10;;;3.53;;
30571;SDS011;17348;50.948;10.696;2023-09-08T11:57:43;6.63;;;3.83;;
30571;SDS011;17348;50.948;10.696;2023-09-08T12:00:48;6.25;;;3.50;;
30571;SDS011;17348;50.948;10.696;2023-09-08T12:03:51;10.90;;;4.13;;
30571;SDS011;17348;50.948;10.696;2023-09-08T12:06:56;8.25;;;3.10;;
30571;SDS011;17348;50.948;10.696;2023-09-08T12:09:58;6.95;;;3.08;;
30571;SDS011;17348;50.948;10.696;2023-09-08T12:13:08;5.18;;;3.08;;
30571;SDS011;17348;50.948;10.696;2023-09-08T12:16:20;13.57;;;3.50;;
30571;SDS011;17348;50.948;10.696;2023-09-08T12:19:29;5.80;;;3.60;;
30571;SDS011;17348;50.948;10.696;2023-09-08T12:22:34;6.32;;;3.92;;
30571;SDS011;17348;50.948;10.696;2023-09-08T12:25:43;7.70;;;3.20;;
30571;SDS011;17348;50.948;10.696;2023-09-08T12:28:46;8.65;;;3.70;;
30571;SDS011;17348;50.948;10.696;2023-09-08T12:31:49;6.25;;;3.90;;
30571;SDS011;17348;50.948;10.696;2023-09-08T12:34:52;9.35;;;3.90;;
30571;SDS011;17348;50.948;10.696;2023-09-08T12:37:58;8.88;;;3.85;;
30571;SDS011;17348;50.948;10.696;2023-09-08T12:41:01;5.57;;;3.22;;
30571;SDS011;17348;50.948;10.696;2023-09-08T12:44:03;9.43;;;3.65;;
30571;SDS011;17348;50.948;10.696;2023-09-08T12:47:06;8.73;;;3.47;;
30571;SDS011;17348;50.948;10.696;2023-09-08T12:50:10;15.55;;;3.40;;
30571;SDS011;17348;50.948;10.696;2023-09-08T12:53:15;4.93;;;3.60;;
30571;SDS011;17348;50.948;10.696;2023-09-08T12:56:17;12.68;;;4.45;;
30571;SDS011;17348;50.948;10.696;2023-09-08T12:59:19;9.55;;;3.38;;
30571;SDS011;17348;50.948;10.696;2023-09-08T13:02:22;7.53;;;3.53;;
30571;SDS011;17348;50.948;10.696;2023-09-08T13:05:24;7.88;;;4.10;;
30571;SDS011;17348;50.948;10.696;2023-09-08T13:08:28;7.55;;;3.35;;
30571;SDS011;17348;50.948;10.696;2023-09-08T13:11:30;6.63;;;3.13;;
30571;SDS011;17348;50.948;10.696;2023-09-08T13:14:33;8.90;;;3.95;;
30571;SDS011;17348;50.948;10.696;2023-09-08T13:17:35;8.25;;;3.83;;
30571;SDS011;17348;50.948;10.696;2023-09-08T13:20:40;7.60;;;3.38;;
30571;SDS011;17348;50.948;10.696;2023-09-08T13:23:44;6.35;;;3.65;;
30571;SDS011;17348;50.948;10.696;2023-09-08T13:26:46;5.22;;;3.58;;
30571;SDS011;17348;50.948;10.696;2023-09-08T13:29:48;9.27;;;3.20;;
30571;SDS011;17348;50.948;10.696;2023-09-08T13:32:51;11.18;;;3.78;;
30571;SDS011;17348;50.948;10.696;2023-09-08T13:35:53;9.50;;;3.95;;
30571;SDS011;17348;50.948;10.696;2023-09-08T13:38:57;6.20;;;3.83;;
30571;SDS011;17348;50.948;10.696;2023-09-08T13:42:01;10.30;;;3.30;;
30571;SDS011;17348;50.948;10.696;2023-09-08T13:45:04;6.95;;;3.58;;
30571;SDS011;17348;50.948;10.696;2023-09-08T13:48:07;8.65;;;3.25;;
30571;SDS011;17348;50.948;10.696;2023-09-08T13:51:09;6.00;;;3.33;;
30571;SDS011;17348;50.948;10.696;2023-09-08T13:54:13;9.00;;;3.38;;
30571;SDS011;17348;50.948;10.696;2023-09-08T13:57:15;9.00;;;3.30;;
30571;SDS011;17348;50.948;10.696;2023-09-08T14:00:20;5.82;;;3.10;;
30571;SDS011;17348;50.948;10.696;2023-09-08T14:03:22;14.20;;;3.65;;
30571;SDS011;17348;50.948;10.696;2023-09-08T14:06:24;6.95;;;3.17;;
30571;SDS011;17348;50.948;10.696;2023-09-08T14:09:28;5.00;;;3.30;;
30571;SDS011;17348;50.948;10.696;2023-09-08T14:12:30;7.32;;;3.17;;
30571;SDS011;17348;50.948;10.696;2023-09-08T14:15:33;5.28;;;2.80;;
30571;SDS011;17348;50.948;10.696;2023-09-08T14:18:35;11.93;;;3.38;;
30571;SDS011;17348;50.948;10.696;2023-09-08T14:21:37;10.70;;;3.10;;
30571;SDS011;17348;50.948;10.696;2023-09-08T14:24:41;7.82;;;2.70;;
30571;SDS011;17348;50.948;10.696;2023-09-08T14:27:44;8.25;;;3.55;;
30571;SDS011;17348;50.948;10.696;2023-09-08T14:30:46;7.18;;;3.38;;
30571;SDS011;17348;50.948;10.696;2023-09-08T14:33:52;7.32;;;3.25;;
30571;SDS011;17348;50.948;10.696;2023-09-08T14:36:55;6.65;;;3.30;;
30571;SDS011;17348;50.948;10.696;2023-09-08T14:39:59;5.88;;;2.67;;
30571;SDS011;17348;50.948;10.696;2023-09-08T14:43:01;11.00;;;2.75;;
30571;SDS011;17348;50.948;10.696;2023-09-08T14:46:03;4.18;;;2.72;;
30571;SDS011;17348;50.948;10.696;2023-09-08T14:49:06;6.38;;;3.10;;
30571;SDS011;17348;50.948;10.696;2023-09-08T14:52:08;6.70;;;3.00;;
30571;SDS011;17348;50.948;10.696;2023-09-08T14:55:12;9.52;;;3.30;;
30571;SDS011;17348;50.948;10.696;2023-09-08T14:58:14;11.70;;;3.10;;
30571;SDS011;17348;50.948;10.696;2023-09-08T15:01:17;14.15;;;3.03;;
30571;SDS011;17348;50.948;10.696;2023-09-08T15:04:19;7.40;;;3.55;;
30571;SDS011;17348;50.948;10.696;2023-09-08T15:07:22;11.60;;;2.75;;
30571;SDS011;17348;50.948;10.696;2023-09-08T15:10:25;5.65;;;3.55;;
30571;SDS011;17348;50.948;10.696;2023-09-08T15:13:28;6.20;;;3.22;;
30571;SDS011;17348;50.948;10.696;2023-09-08T15:16:30;10.02;;;2.88;;
30571;SDS011;17348;50.948;10.696;2023-09-08T15:19:33;5.70;;;2.42;;
30571;SDS011;17348;50.948;10.696;2023-09-08T15:22:35;7.85;;;3.40;;
30571;SDS011;17348;50.948;10.696;2023-09-08T15:25:39;6.68;;;2.92;;
30571;SDS011;17348;50.948;10.696;2023-09-08T15:28:41;5.75;;;3.10;;
30571;SDS011;17348;50.948;10.696;2023-09-08T15:31:43;3.92;;;2.67;;
30571;SDS011;17348;50.948;10.696;2023-09-08T15:34:48;7.15;;;3.33;;
30571;SDS011;17348;50.948;10.696;2023-09-08T15:37:52;4.75;;;3.30;;
30571;SDS011;17348;50.948;10.696;2023-09-08T15:41:12;6.85;;;3.20;;
30571;SDS011;17348;50.948;10.696;2023-09-08T15:44:18;6.95;;;3.55;;
30571;SDS011;17348;50.948;10.696;2023-09-08T15:47:20;12.55;;;3.08;;
30571;SDS011;17348;50.948;10.696;2023-09-08T15:50:23;7.28;;;3.28;;
30571;SDS011;17348;50.948;10.696;2023-09-08T15:53:25;5.07;;;3.35;;
30571;SDS011;17348;50.948;10.696;2023-09-08T15:56:29;10.13;;;3.28;;
30571;SDS011;17348;50.948;10.696;2023-09-08T15:59:31;5.85;;;3.00;;
30571;SDS011;17348;50.948;10.696;2023-09-08T16:02:34;4.93;;;3.17;;
30571;SDS011;17348;50.948;10.696;2023-09-08T16:05:36;5.85;;;3.17;;
30571;SDS011;17348;50.948;10.696;2023-09-08T16:08:38;8.43;;;3.13;;
30571;SDS011;17348;50.948;10.696;2023-09-08T16:11:51;4.47;;;3.30;;
30571;SDS011;17348;50.948;10.696;2023-09-08T16:14:53;6.45;;;2.95;;
30571;SDS011;17348;50.948;10.696;2023-09-08T16:17:56;15.73;;;3.95;;
30571;SDS011;17348;50.948;10.696;2023-09-08T16:20:59;4.15;;;3.17;;
30571;SDS011;17348;50.948;10.696;2023-09-08T16:24:02;6.10;;;3.72;;
30571;SDS011;17348;50.948;10.696;2023-09-08T16:27:06;9.60;;;3.42;;
30571;SDS011;17348;50.948;10.696;2023-09-08T16:30:08;7.50;;;3.72;;
30571;SDS011;17348;50.948;10.696;2023-09-08T16:33:11;7.38;;;3.40;;
30571;SDS011;17348;50.948;10.696;2023-09-08T16:36:15;8.15;;;3.30;;
30571;SDS011;17348;50.948;10.696;2023-09-08T16:39:17;6.95;;;4.05;;
30571;SDS011;17348;50.948;10.696;2023-09-08T16:42:21;15.30;;;3.95;;
30571;SDS011;17348;50.948;10.696;2023-09-08T16:45:23;8.60;;;3.65;;
30571;SDS011;17348;50.948;10.696;2023-09-08T16:48:25;9.43;;;6.25;;
30571;SDS011;17348;50.948;10.696;2023-09-08T16:51:28;8.55;;;4.40;;
30571;SDS011;17348;50.948;10.696;2023-09-08T16:54:30;7.28;;;5.40;;
30571;SDS011;17348;50.948;10.696;2023-09-08T16:57:34;6.82;;;3.30;;
30571;SDS011;17348;50.948;10.696;2023-09-08T17:00:36;6.32;;;3.92;;
30571;SDS011;17348;50.948;10.696;2023-09-08T17:03:42;8.43;;;4.10;;
30571;SDS011;17348;50.948;10.696;2023-09-08T17:06:47;6.57;;;3.45;;
30571;SDS011;17348;50.948;10.696;2023-09-08T17:09:51;11.65;;;3.72;;
30571;SDS011;17348;50.948;10.696;2023-09-08T17:12:55;6.55;;;3.80;;
30571;SDS011;17348;50.948;10.696;2023-09-08T17:15:57;6.13;;;3.70;;
30571;SDS011;17348;50.948;10.696;2023-09-08T17:19:00;7.78;;;3.85;;
30571;SDS011;17348;50.948;10.696;2023-09-08T17:22:03;7.45;;;3.50;;
30571;SDS011;17348;50.948;10.696;2023-09-08T17:25:07;5.82;;;3.90;;
30571;SDS011;17348;50.948;10.696;2023-09-08T17:28:12;6.93;;;3.25;;
30571;SDS011;17348;50.948;10.696;2023-09-08T17:31:17;7.63;;;3.78;;
30571;SDS011;17348;50.948;10.696;2023-09-08T17:34:20;5.93;;;3.58;;
30571;SDS011;17348;50.948;10.696;2023-09-08T17:37:23;6.22;;;4.07;;
30571;SDS011;17348;50.948;10.696;2023-09-08T17:40:25;8.52;;;3.47;;
30571;SDS011;17348;50.948;10.696;2023-09-08T17:43:28;6.82;;;4.05;;
30571;SDS011;17348;50.948;10.696;2023-09-08T17:46:31;6.03;;;3.47;;
30571;SDS011;17348;50.948;10.696;2023-09-08T17:49:34;7.30;;;3.33;;
30571;SDS011;17348;50.948;10.696;2023-09-08T17:52:36;6.65;;;3.10;;
30571;SDS011;17348;50.948;10.696;2023-09-08T17:55:39;8.90;;;3.83;;
30571;SDS011;17348;50.948;10.696;2023-09-08T17:58:42;9.60;;;3.45;;
30571;SDS011;17348;50.948;10.696;2023-09-08T18:01:48;13.05;;;4.20;;
30571;SDS011;17348;50.948;10.696;2023-09-08T18:04:50;10.65;;;4.25;;
30571;SDS011;17348;50.948;10.696;2023-09-08T18:07:53;14.13;;;3.50;;
30571;SDS011;17348;50.948;10.696;2023-09-08T18:10:58;7.50;;;4.43;;
30571;SDS011;17348;50.948;10.696;2023-09-08T18:14:02;10.77;;;3.60;;
30571;SDS011;17348;50.948;10.696;2023-09-08T18:17:05;5.25;;;3.53;;
30571;SDS011;17348;50.948;10.696;2023-09-08T18:20:08;8.00;;;3.45;;
30571;SDS011;17348;50.948;10.696;2023-09-08T18:23:11;9.63;;;3.65;;
30571;SDS011;17348;50.948;10.696;2023-09-08T18:26:14;10.40;;;3.65;;
30571;SDS011;17348;50.948;10.696;2023-09-08T18:29:18;16.50;;;5.95;;